This is the latest recevied weather packets stored in our database for station/object KE4EST. If no packets are shown the sender has not sent any weather packets the latest 10 day(s).
| Time | Temp. | Humidity | Pressure | Rain* | Wind** | Luminosity | Snow |
|---|---|---|---|---|---|---|---|
| 1777758415 | 15.56° C | 38% | 1013.8 hPa | 0 mm | - | 101 W/m² | - |
| 1777758113 | 15.56° C | 37% | 1013.9 hPa | 0 mm | - | 319 W/m² | - |
| 1777757809 | 15.56° C | 36% | 1013.9 hPa | 0 mm | - | 97 W/m² | - |
| 1777757506 | 16.11° C | 37% | 1013.8 hPa | 0 mm | - | 74 W/m² | - |
| 1777757205 | 16.11° C | 36% | 1013.7 hPa | 0 mm | - | 195 W/m² | - |
| 1777756903 | 15.56° C | 38% | 1013.5 hPa | 0 mm | - | 77 W/m² | - |
| 1777756598 | 15.56° C | 37% | 1013.6 hPa | 0 mm | - | 60 W/m² | - |
| 1777756295 | 15.56° C | 38% | 1013.5 hPa | 0 mm | - | 73 W/m² | - |
| 1777755992 | 15° C | 39% | 1013.7 hPa | 0 mm | - | 78 W/m² | - |
| 1777755689 | 15° C | 39% | 1013.7 hPa | 0 mm | - | 93 W/m² | - |
| 1777755386 | 15° C | 38% | 1013.6 hPa | 0 mm | - | 56 W/m² | - |
| 1777755083 | 16.11° C | 37% | 1013.7 hPa | 0 mm | - | 422 W/m² | - |
| 1777754780 | 15.56° C | 35% | 1013.6 hPa | 0 mm | - | 118 W/m² | - |
| 1777754477 | 16.67° C | 33% | 1013.6 hPa | 0 mm | - | 448 W/m² | - |
| 1777754174 | 16.11° C | 35% | 1013.2 hPa | 0 mm | - | 498 W/m² | - |
| 1777753867 | 16.11° C | 33% | 1013.6 hPa | 0 mm | - | 512 W/m² | - |
| 1777753561 | 17.22° C | 37% | 1013.5 hPa | 0 mm | - | 518 W/m² | - |
| 1777753260 | 16.67° C | 36% | 1013.2 hPa | 0 mm | - | 533 W/m² | - |
| 1777752955 | 16.67° C | 35% | 1013.3 hPa | 0 mm | - | 529 W/m² | - |
| 1777752652 | 16.67° C | 35% | 1013.3 hPa | 0 mm | - | 542 W/m² | - |
| 1777752348 | 16.67° C | 37% | 1013.5 hPa | 0 mm | - | 572 W/m² | - |
| 1777752046 | 16.67° C | 38% | 1013.3 hPa | 0 mm | - | 402 W/m² | - |
| 1777751743 | 16.11° C | 38% | 1013.2 hPa | 0 mm | - | 473 W/m² | - |
| 1777751439 | 16.11° C | 36% | 1013.5 hPa | 0 mm | - | 406 W/m² | - |
| 1777751136 | 16.11° C | 35% | 1013.3 hPa | 0 mm | - | 563 W/m² | - |
* Rain latest hour (hover to see other rain measurements)
** Current wind speed in m/s (hover to see current wind gust speed)